DW5018 Weather Reports


Display with metric or nautical units.
time (UTC)temp
F
wind
direction
speed
MPH
gust
MPH
rain 1hr
in
rain 24hr
in
rain mn
in
humidity
%
barometer
mb
20260507071519 60 281 2.0 8.0 0.00 0.08 0.01 93 1011.0
20260507071006 60 302 4.0 9.0 0.00 0.08 0.01 93 1011.1
20260507070504 61 302 3.0 9.0 0.00 0.08 0.01 93 1011.0
20260507070009 61 289 2.0 8.0 0.00 0.08 0.01 93 1010.8
20260507065502 61 314 4.0 10.0 0.00 0.08 0.01 92 1010.7
20260507065004 61 357 4.0 10.0 0.00 0.08 0.01 92 1010.7
20260507064504 61 332 4.0 8.0 0.00 0.08 0.01 92 1010.3
20260507064005 61 341 1.0 7.0 0.00 0.08 0.01 92 1009.8
20260507063504 61 328 1.0 5.0 0.00 0.08 0.01 92 1009.6
20260507063004 61 34 1.0 7.0 0.00 0.08 0.01 92 1009.5
20260507062504 62 58 2.0 7.0 0.00 0.08 0.01 91 1009.2
20260507062002 62 52 2.0 6.0 0.00 0.08 0.01 91 1009.3
20260507061505 62 338 0.0 6.0 0.00 0.08 0.01 91 1009.4
20260507061004 62 58 2.0 8.0 0.01 0.08 0.01 91 1009.4
20260507060503 62 47 2.0 8.0 0.01 0.08 0.01 90 1009.6
20260507060008 63 32 2.0 8.0 0.01 0.08 0.01 90 1009.5
20260507055505 63 278 3.0 11.0 0.01 0.08 0.01 90 1009.9
20260507055007 63 310 4.0 11.0 0.01 0.08 0.01 90 1010.1
20260507054516 64 359 1.0 9.0 0.01 0.08 0.01 91 1009.9
20260507054005 64 56 4.0 9.0 0.01 0.08 0.01 90 1009.7
20260507053503 65 65 4.0 8.0 0.01 0.08 0.01 90 1009.7
20260507053005 65 38 2.0 6.0 0.01 0.08 0.01 91 1010.0
20260507052504 66 344 2.0 8.0 0.01 0.08 0.01 92 1010.1
20260507052004 66 331 4.0 8.0 0.01 0.08 0.01 92 1010.0
20260507051504 66 316 1.0 6.0 0.01 0.08 0.01 92 1010.0
20260507051003 66 339 3.0 6.0 0.00 0.07 0.00 92 1010.0
20260507050504 66 312 2.0 4.0 0.00 0.07 0.00 92 1010.1
20260507050011 66 285 0.0 0.0 0.00 0.07 0.00 93 1010.1
20260507045504 66 281 0.0 0.0 0.00 0.07 0.00 93 1010.1
20260507045007 66 281 0.0 0.0 0.00 0.07 0.00 93 1010.0
20260507044512 65 282 0.0 0.0 0.00 0.07 0.00 93 1010.0
20260507044004 65 282 0.0 0.0 0.00 0.07 0.00 92 1009.9
20260507043505 65 281 0.0 0.0 0.00 0.07 0.00 92 1010.0
20260507043009 65 281 0.0 0.0 0.00 0.07 0.00 92 1010.0
20260507042503 66 281 0.0 0.0 0.00 0.07 0.00 92 1010.0
20260507042003 66 281 0.0 0.0 0.00 0.07 0.00 92 1010.1
20260507041504 66 281 0.0 0.0 0.00 0.07 0.00 92 1009.9
20260507041003 66 282 0.0 0.0 0.00 0.07 0.00 92 1009.8
20260507040507 66 281 0.0 0.0 0.00 0.07 0.00 91 1009.8
20260507040007 66 279 0.0 0.0 0.00 0.07 0.00 91 1009.9
20260507035504 66 278 0.0 0.0 0.00 0.07 0.07 91 1009.9
20260507035004 66 278 0.0 0.0 0.00 0.07 0.07 91 1009.8
20260507034527 66 278 0.0 0.0 0.00 0.07 0.07 91 1009.9
20260507034004 66 278 0.0 0.0 0.00 0.07 0.07 91 1009.8
20260507033508 66 278 0.0 0.0 0.00 0.07 0.07 91 1010.0
20260507033032 66 278 0.0 0.0 0.00 0.07 0.07 91 1010.2
20260507032509 66 278 0.0 0.0 0.00 0.07 0.07 90 1010.2
20260507032010 66 278 0.0 2.0 0.00 0.07 0.07 90 1010.0
20260507031503 66 278 0.0 2.0 0.00 0.07 0.07 90 1009.8
20260507031004 66 277 0.0 0.0 0.00 0.07 0.07 90 1009.7
20260507030506 66 277 0.0 0.0 0.00 0.07 0.07 90 1009.5
20260507030006 66 278 0.0 0.0 0.00 0.07 0.07 90 1009.3
20260507025504 66 278 0.0 0.0 0.00 0.07 0.07 91 1009.2
20260507025005 66 278 0.0 0.0 0.00 0.07 0.07 91 1009.2
20260507024509 66 278 0.0 0.0 0.00 0.07 0.07 91 1009.0
20260507024006 66 278 0.0 0.0 0.00 0.07 0.07 90 1009.1
20260507023504 66 277 0.0 0.0 0.00 0.07 0.07 89 1009.2
20260507023023 66 277 0.0 0.0 0.00 0.07 0.07 89 1009.4
20260507022504 66 277 0.0 0.0 0.00 0.07 0.07 89 1009.3
20260507022009 66 277 0.0 0.0 0.00 0.07 0.07 89 1009.5
20260507021518 67 277 0.0 0.0 0.00 0.07 0.07 89 1009.7
20260507021006 67 277 0.0 0.0 0.00 0.07 0.07 89 1009.7
20260507020507 67 277 0.0 0.0 0.00 0.07 0.07 89 1010.0
20260507020006 67 277 0.0 0.0 0.00 0.07 0.07 89 1010.0
20260507015504 67 277 0.0 0.0 0.00 0.07 0.07 88 1010.1
20260507015008 67 277 0.0 0.0 0.00 0.07 0.07 88 1010.0
20260507014512 67 276 0.0 0.0 0.00 0.07 0.07 87 1009.9
20260507014006 67 276 0.0 0.0 0.00 0.07 0.07 86 1009.9
20260507013505 68 276 0.0 0.0 0.00 0.07 0.07 86 1009.9
20260507013013 68 276 0.0 0.0 0.00 0.07 0.07 86 1009.8
20260507012508 68 275 0.0 0.0 0.00 0.07 0.07 85 1009.6
20260507012006 68 275 0.0 0.0 0.00 0.07 0.07 84 1009.5
20260507011522 69 275 0.0 0.0 0.00 0.07 0.07 84 1009.5
20260507011006 69 275 0.0 3.0 0.00 0.07 0.07 84 1009.5
20260507010506 69 274 0.0 4.0 0.00 0.07 0.07 84 1009.4
20260507010024 69 275 2.0 5.0 0.00 0.07 0.07 84 1009.7
20260507005507 69 276 2.0 6.0 0.00 0.07 0.07 84 1009.6
20260507005011 69 277 3.0 6.0 0.00 0.07 0.07 84 1009.7
20260507004504 69 288 2.0 5.0 0.00 0.07 0.07 83 1009.6
20260507004005 69 242 2.0 7.0 0.00 0.07 0.07 84 1009.6
20260507003503 69 255 3.0 7.0 0.00 0.07 0.07 83 1009.5
20260507003008 69 262 3.0 7.0 0.00 0.07 0.07 83 1009.6
20260507002505 70 257 3.0 8.0 0.00 0.07 0.07 83 1009.5
20260507002005 70 249 2.0 10.0 0.00 0.07 0.07 83 1009.4
20260507001513 70 236 5.0 10.0 0.00 0.07 0.07 83 1009.5
20260507001003 70 259 4.0 9.0 0.00 0.07 0.07 83 1009.4
20260507000503 70 252 6.0 11.0 0.00 0.07 0.07 83 1009.5
20260507000007 70 255 5.0 11.0 0.00 0.07 0.07 83 1009.5
20260506235505 70 255 5.0 8.0 0.00 0.07 0.07 83 1009.4
20260506235003 70 236 4.0 10.0 0.00 0.07 0.07 82 1009.2
20260506234504 70 261 5.0 10.0 0.00 0.07 0.07 82 1009.1
20260506234003 70 208 4.0 8.0 0.00 0.07 0.07 82 1009.1
20260506233504 70 264 3.0 10.0 0.00 0.07 0.07 82 1009.2
20260506233004 70 235 5.0 11.0 0.00 0.07 0.07 83 1009.2
20260506232504 70 255 5.0 11.0 0.00 0.07 0.07 82 1009.3
20260506232006 70 240 5.0 11.0 0.00 0.07 0.07 82 1009.2
20260506231510 70 225 6.0 13.0 0.00 0.07 0.07 82 1009.0
20260506231001 70 268 7.0 13.0 0.00 0.07 0.07 82 1009.1
20260506230502 70 236 6.0 12.0 0.00 0.07 0.07 83 1009.1
20260506230003 70 248 5.0 14.0 0.00 0.07 0.07 83 1009.0
20260506225507 70 207 5.0 14.0 0.00 0.07 0.07 82 1009.1
20260506225003 70 271 6.0 13.0 0.00 0.07 0.07 83 1009.2
20260506224504 70 243 6.0 13.0 0.00 0.07 0.07 82 1009.2
20260506224007 70 240 8.0 16.0 0.00 0.07 0.07 82 1009.3
20260506223505 70 256 8.0 16.0 0.00 0.07 0.07 82 1009.2
20260506223004 70 248 8.0 17.0 0.00 0.07 0.07 82 1009.1
20260506222503 70 208 7.0 17.0 0.00 0.07 0.07 82 1009.1
20260506222003 70 229 8.0 15.0 0.00 0.07 0.07 82 1009.1
20260506221510 70 245 8.0 17.0 0.00 0.07 0.07 82 1009.1
20260506221004 70 224 9.0 17.0 0.00 0.07 0.07 82 1009.1
20260506220505 70 240 8.0 16.0 0.00 0.07 0.07 82 1009.0
20260506220028 70 236 9.0 16.0 0.00 0.07 0.07 82 1009.2
20260506215503 70 260 9.0 16.0 0.00 0.07 0.07 82 1009.2
20260506215002 70 235 10.0 19.0 0.00 0.07 0.07 82 1009.2
20260506214506 70 221 8.0 19.0 0.00 0.07 0.07 82 1009.2
20260506214004 70 255 9.0 18.0 0.00 0.07 0.07 82 1009.0
20260506213503 70 223 8.0 15.0 0.00 0.07 0.07 82 1009.0
20260506213003 69 225 7.0 18.0 0.00 0.07 0.07 83 1009.1
20260506212503 69 241 9.0 18.0 0.00 0.07 0.07 83 1009.4
20260506212003 69 240 9.0 16.0 0.00 0.07 0.07 83 1009.4
20260506211507 69 244 9.0 16.0 0.00 0.07 0.07 83 1009.5
20260506211003 69 223 8.0 14.0 0.00 0.07 0.07 83 1009.3
20260506210503 69 218 8.0 16.0 0.00 0.07 0.07 83 1009.3
20260506210012 69 235 8.0 16.0 0.00 0.07 0.07 83 1009.3
20260506205508 69 251 10.0 16.0 0.00 0.07 0.07 83 1009.3
20260506205007 69 221 7.0 13.0 0.00 0.07 0.07 83 1009.3
20260506204503 69 246 7.0 12.0 0.00 0.07 0.07 83 1009.3
20260506204003 68 242 6.0 15.0 0.00 0.07 0.07 83 1009.2
20260506203503 68 233 9.0 15.0 0.00 0.07 0.07 83 1009.3
20260506203004 68 224 7.0 15.0 0.00 0.07 0.07 83 1009.3
20260506202503 68 233 8.0 15.0 0.00 0.07 0.07 83 1009.2
20260506202005 68 236 6.0 12.0 0.00 0.07 0.07 84 1009.1
20260506201505 68 245 7.0 12.0 0.00 0.07 0.07 84 1009.1
20260506201004 68 200 7.0 15.0 0.00 0.07 0.07 84 1009.1
20260506200503 68 221 9.0 15.0 0.00 0.07 0.07 84 1009.2
20260506200004 68 244 6.0 15.0 0.00 0.07 0.07 85 1009.4
20260506195506 68 233 6.0 15.0 0.00 0.07 0.07 85 1009.4
20260506195004 68 261 6.0 13.0 0.00 0.07 0.07 85 1009.6
20260506194510 68 249 7.0 12.0 0.00 0.07 0.07 85 1009.5
20260506194006 68 250 7.0 13.0 0.00 0.07 0.07 85 1010.0
20260506193512 68 257 7.0 13.0 0.00 0.07 0.07 85 1010.1
20260506193004 68 286 6.0 12.0 0.00 0.07 0.07 85 1010.2
20260506192502 68 255 9.0 14.0 0.00 0.07 0.07 85 1009.9
20260506192004 68 261 8.0 14.0 0.00 0.07 0.07 85 1010.2
20260506191504 68 283 9.0 14.0 0.00 0.07 0.07 85 1010.2
20260506191004 68 218 7.0 15.0 0.00 0.07 0.07 85 1010.2
20260506190504 67 262 8.0 15.0 0.00 0.07 0.07 85 1010.3
20260506190006 68 233 7.0 18.0 0.00 0.07 0.07 85 1010.2
20260506185503 68 248 8.0 18.0 0.00 0.07 0.07 85 1010.4
20260506185003 67 249 9.0 14.0 0.00 0.07 0.07 85 1010.6
20260506184508 67 251 8.0 17.0 0.00 0.07 0.07 85 1010.5
20260506184008 67 261 7.0 17.0 0.00 0.07 0.07 85 1010.6
20260506183508 67 240 8.0 15.0 0.00 0.07 0.07 85 1010.6
20260506183018 67 231 8.0 15.0 0.00 0.07 0.07 85 1010.6
20260506182506 67 228 8.0 15.0 0.00 0.07 0.07 85 1010.7
20260506182008 67 249 8.0 15.0 0.00 0.07 0.07 85 1010.8
20260506181503 67 257 9.0 19.0 0.00 0.07 0.07 85 1010.8
20260506181006 67 224 8.0 19.0 0.00 0.07 0.07 84 1010.7
20260506180506 67 226 8.0 14.0 0.00 0.07 0.07 84 1010.7
20260506180008 67 252 7.0 15.0 0.00 0.07 0.07 85 1010.7
20260506175506 67 200 7.0 16.0 0.00 0.07 0.07 85 1010.7
20260506175010 67 226 8.0 16.0 0.00 0.07 0.07 85 1010.8
20260506174508 66 251 7.0 13.0 0.00 0.07 0.07 85 1010.9
20260506174008 66 250 7.0 14.0 0.00 0.07 0.07 86 1010.9
20260506173505 66 229 5.0 14.0 0.00 0.07 0.07 86 1011.0
20260506173018 66 235 8.0 13.0 0.00 0.07 0.07 86 1011.0
20260506172506 66 209 6.0 13.0 0.00 0.07 0.07 87 1011.1
20260506172008 66 219 6.0 13.0 0.00 0.07 0.07 87 1011.1
20260506171521 65 204 5.0 13.0 0.00 0.07 0.07 87 1011.0
20260506171007 65 236 5.0 14.0 0.00 0.07 0.07 87 1011.1
20260506170507 65 282 6.0 14.0 0.00 0.07 0.07 87 1011.2
20260506170006 65 252 6.0 14.0 0.00 0.07 0.07 87 1011.3
20260506165506 65 227 6.0 14.0 0.00 0.07 0.07 87 1011.3
20260506165004 65 235 6.0 14.0 0.00 0.07 0.07 88 1011.4
20260506164504 65 235 6.0 14.0 0.01 0.07 0.07 88 1011.4
20260506164003 65 255 8.0 15.0 0.01 0.07 0.07 88 1011.6
20260506163504 64 238 7.0 15.0 0.01 0.07 0.07 88 1011.8
20260506163010 64 229 7.0 15.0 0.01 0.07 0.07 89 1011.6
20260506162504 64 185 5.0 13.0 0.02 0.07 0.07 89 1011.5
20260506162011 64 184 6.0 13.0 0.03 0.07 0.07 90 1011.2
20260506161512 64 235 7.0 14.0 0.04 0.07 0.07 90 1011.2
20260506161008 64 207 6.0 14.0 0.04 0.07 0.07 90 1011.2
20260506160510 63 208 7.0 13.0 0.05 0.07 0.07 90 1011.3
20260506160021 63 223 7.0 13.0 0.05 0.07 0.07 90 1011.5
20260506155509 64 192 5.0 13.0 0.05 0.07 0.07 90 1011.5
20260506155010 64 227 5.0 20.0 0.05 0.07 0.07 90 1011.6
20260506154508 64 184 8.0 20.0 0.05 0.06 0.06 89 1011.6
20260506154004 64 233 7.0 18.0 0.05 0.06 0.06 89 1011.6
20260506153503 64 226 7.0 15.0 0.05 0.06 0.06 89 1011.7
20260506153014 64 197 7.0 16.0 0.05 0.06 0.06 89 1011.7
20260506152504 64 265 7.0 21.0 0.04 0.05 0.05 88 1011.7
20260506152004 64 229 8.0 21.0 0.03 0.04 0.04 87 1011.9
20260506151512 64 261 8.0 15.0 0.02 0.03 0.03 86 1012.1
20260506151002 65 222 8.0 15.0 0.02 0.03 0.03 85 1012.2
20260506150502 65 231 6.0 15.0 0.01 0.02 0.02 85 1012.2
20260506150005 65 215 8.0 15.0 0.01 0.02 0.02 84 1012.2
20260506145502 66 214 8.0 19.0 0.01 0.02 0.02 83 1012.2
20260506145002 65 217 8.0 19.0 0.01 0.02 0.02 83 1012.2
20260506144507 65 240 7.0 17.0 0.00 0.01 0.01 83 1012.2
20260506144002 65 248 8.0 17.0 0.00 0.01 0.01 83 1012.1
20260506143503 65 156 5.0 13.0 0.01 0.01 0.01 84 1012.1
20260506143004 65 230 5.0 13.0 0.01 0.01 0.01 83 1012.0
20260506142503 65 230 4.0 12.0 0.01 0.01 0.01 83 1011.9
20260506142003 65 242 5.0 13.0 0.01 0.01 0.01 83 1012.0
20260506141502 65 238 7.0 13.0 0.01 0.01 0.01 82 1012.0
20260506141004 65 231 3.0 8.0 0.01 0.01 0.01 84 1011.9
20260506140505 65 224 3.0 11.0 0.01 0.01 0.01 83 1012.0
20260506140003 65 228 5.0 11.0 0.01 0.01 0.01 82 1012.0
20260506135503 66 203 4.0 10.0 0.01 0.01 0.01 81 1012.1
20260506135005 66 221 6.0 12.0 0.01 0.01 0.01 81 1012.2
20260506134504 66 255 6.0 12.0 0.01 0.01 0.01 80 1012.1
20260506134002 66 236 6.0 12.0 0.01 0.01 0.01 80 1012.0
20260506133504 66 195 8.0 15.0 0.00 0.00 0.00 79 1012.0
20260506133004 66 217 6.0 15.0 0.00 0.00 0.00 79 1012.2
20260506132503 66 242 9.0 15.0 0.00 0.00 0.00 79 1012.2
20260506132003 67 206 8.0 17.0 0.00 0.00 0.00 77 1012.1
20260506131506 67 223 7.0 17.0 0.00 0.00 0.00 77 1012.0
20260506131003 67 224 7.0 15.0 0.00 0.00 0.00 77 1012.0
20260506130503 67 235 7.0 15.0 0.00 0.00 0.00 76 1011.9
20260506130003 67 231 8.0 15.0 0.00 0.00 0.00 76 1011.8
20260506125501 67 219 6.0 12.0 0.00 0.00 0.00 76 1011.7
20260506125003 67 204 7.0 12.0 0.00 0.00 0.00 76 1011.8
20260506124503 67 212 5.0 12.0 0.00 0.00 0.00 77 1011.9
20260506124003 67 240 6.0 12.0 0.00 0.00 0.00 76 1011.8
20260506123507 67 238 6.0 14.0 0.00 0.00 0.00 76 1011.9
20260506123004 67 224 5.0 14.0 0.00 0.00 0.00 76 1011.9
20260506122504 66 232 7.0 13.0 0.00 0.00 0.00 76 1011.7
20260506122003 66 231 5.0 12.0 0.00 0.00 0.00 77 1011.8
20260506121503 66 233 7.0 12.0 0.00 0.00 0.00 76 1011.8
20260506121004 66 246 6.0 12.0 0.00 0.00 0.00 77 1012.0
20260506120503 66 243 5.0 12.0 0.00 0.00 0.00 77 1011.9
20260506120006 66 207 4.0 12.0 0.00 0.00 0.00 76 1011.9
20260506115507 66 183 4.0 11.0 0.00 0.00 0.00 76 1012.1
20260506115003 66 212 5.0 10.0 0.00 0.00 0.00 77 1012.1
20260506114505 66 232 5.0 12.0 0.00 0.00 0.00 76 1012.0
20260506114003 66 212 7.0 12.0 0.00 0.00 0.00 76 1012.0
20260506113503 66 200 6.0 11.0 0.00 0.00 0.00 76 1012.0
20260506113005 66 238 5.0 13.0 0.00 0.00 0.00 76 1012.0
20260506112502 66 172 6.0 14.0 0.00 0.00 0.00 76 1012.0
20260506112003 66 218 7.0 14.0 0.00 0.00 0.00 76 1012.0
20260506111504 66 226 8.0 14.0 0.00 0.00 0.00 76 1012.0
20260506111004 66 227 7.0 14.0 0.00 0.00 0.00 76 1012.0
20260506110504 66 246 7.0 14.0 0.00 0.00 0.00 76 1011.9
20260506110006 66 217 6.0 12.0 0.00 0.00 0.00 76 1012.0
20260506105504 66 214 5.0 10.0 0.00 0.00 0.00 77 1011.8
20260506105003 66 205 4.0 11.0 0.00 0.00 0.00 77 1012.0
20260506104504 66 224 5.0 11.0 0.00 0.00 0.00 76 1011.9
20260506104003 66 221 4.0 15.0 0.00 0.00 0.00 77 1011.8
20260506103505 66 211 5.0 15.0 0.00 0.00 0.00 77 1011.9
20260506103003 66 213 5.0 10.0 0.00 0.00 0.00 77 1011.8
20260506102503 66 231 5.0 10.0 0.00 0.00 0.00 78 1011.8
20260506102003 66 214 6.0 9.0 0.00 0.00 0.00 77 1011.8
20260506101504 66 197 6.0 9.0 0.00 0.00 0.00 79 1011.7
20260506101002 66 189 4.0 12.0 0.00 0.00 0.00 79 1011.6
20260506100504 66 193 5.0 14.0 0.00 0.00 0.00 79 1011.6
20260506100005 66 257 6.0 14.0 0.00 0.00 0.00 79 1011.6
20260506095504 66 203 5.0 13.0 0.00 0.00 0.00 79 1011.6
20260506095004 66 225 4.0 13.0 0.00 0.00 0.00 80 1011.6
20260506094506 66 247 7.0 13.0 0.00 0.00 0.00 80 1011.7
20260506094005 66 221 6.0 13.0 0.00 0.00 0.00 80 1011.6
20260506093504 66 146 6.0 11.0 0.00 0.00 0.00 80 1011.6
20260506093004 66 212 6.0 11.0 0.00 0.00 0.00 80 1011.6
20260506092505 66 216 5.0 11.0 0.00 0.00 0.00 80 1011.6
20260506092002 66 220 5.0 12.0 0.00 0.00 0.00 80 1011.7
20260506091506 66 229 5.0 13.0 0.00 0.00 0.00 80 1011.8
20260506091003 66 217 7.0 15.0 0.00 0.00 0.00 80 1011.9
20260506090503 66 252 7.0 15.0 0.00 0.00 0.00 80 1011.9
20260506090012 66 237 6.0 15.0 0.00 0.00 0.00 80 1011.8
20260506085503 66 255 8.0 15.0 0.00 0.00 0.00 80 1011.9
20260506085004 66 210 7.0 15.0 0.00 0.00 0.00 79 1011.9
20260506084520 66 204 5.0 12.0 0.00 0.00 0.00 80 1011.9
20260506084004 66 182 7.0 12.0 0.00 0.00 0.00 79 1011.9
20260506083504 66 229 6.0 12.0 0.00 0.00 0.00 79 1011.9
20260506083004 66 241 5.0 12.0 0.00 0.00 0.00 80 1011.9
20260506082503 66 193 6.0 15.0 0.00 0.00 0.00 80 1011.9
20260506082004 66 229 4.0 15.0 0.00 0.00 0.00 79 1011.9
20260506081512 66 191 7.0 15.0 0.00 0.00 0.00 79 1012.0
20260506081006 66 180 4.0 10.0 0.00 0.00 0.00 79 1011.9
20260506080503 66 250 5.0 14.0 0.00 0.00 0.00 79 1011.9
20260506073504 67 212 5.0 11.0 0.00 0.00 0.00 78 1011.9
20260506073012 67 200 5.0 14.0 0.00 0.00 0.00 78 1011.9
20260506072504 67 238 6.0 18.0 0.00 0.00 0.00 78 1011.9
20260506072006 67 206 7.0 18.0 0.00 0.00 0.00 78 1012.0